Time;durP1;ratioP1;P1;durP2;ratioP2;P2;SDS_P1;SDS_P2;PMS_P1;PMS_P2;Temp;Humidity;BMP_temperature;BMP_pressure;BME280_temperature;BME280_humidity;BME280_pressure;Samples;Min_cycle;Max_cycle;Signal;HPM_P1;HPM_P2
2023/07/06 00:00:47;;;;;;;0.95;0.55;;;;;;;17.55;78.18;100566.66;4973569;28;20175;-64
2023/07/06 00:03:14;;;;;;;0.63;0.38;;;;;;;17.50;78.93;100574.50;4971624;28;20053;-63
2023/07/06 00:05:47;;;;;;;0.70;0.70;;;;;;;17.54;78.51;100567.03;4959267;28;20057;-64
2023/07/06 00:08:16;;;;;;;0.90;0.40;;;;;;;17.43;78.99;100572.56;4976568;28;20641;-62
2023/07/06 00:10:43;;;;;;;0.38;0.30;;;;;;;17.47;78.53;100567.09;4957002;28;20062;-65
2023/07/06 00:13:09;;;;;;;0.73;0.43;;;;;;;17.45;78.91;100564.00;4980054;28;20046;-66
2023/07/06 00:15:35;;;;;;;0.80;0.60;;;;;;;17.46;79.19;100571.00;4973030;28;20407;-64
2023/07/06 00:18:05;;;;;;;3.30;0.77;;;;;;;17.39;78.71;100580.00;4961073;28;20022;-66
2023/07/06 00:20:32;;;;;;;0.70;0.45;;;;;;;17.31;79.62;100572.28;4977946;28;20685;-66
2023/07/06 00:22:58;;;;;;;0.52;0.50;;;;;;;17.30;79.76;100576.97;4980382;28;20500;-66
2023/07/06 00:25:25;;;;;;;1.02;0.55;;;;;;;17.26;79.85;100570.78;4976758;28;20038;-65
2023/07/06 00:27:54;;;;;;;0.85;0.50;;;;;;;17.23;80.00;100570.81;4986235;28;20071;-66
2023/07/06 00:30:30;;;;;;;0.63;0.43;;;;;;;17.27;80.30;100579.69;4957641;28;20023;-66
2023/07/06 00:32:56;;;;;;;1.08;0.82;;;;;;;17.37;79.52;100576.91;4979231;28;20030;-66
2023/07/06 00:35:22;;;;;;;1.15;0.90;;;;;;;17.34;79.14;100587.81;4980552;28;20027;-66
2023/07/06 00:37:51;;;;;;;2.17;0.80;;;;;;;17.22;79.76;100588.31;4959965;28;20034;-66
2023/07/06 00:40:17;;;;;;;0.68;0.50;;;;;;;17.14;80.65;100587.59;4977233;28;20695;-64
2023/07/06 00:42:42;;;;;;;0.85;0.70;;;;;;;17.08;81.05;100591.91;4962462;28;20039;-66
2023/07/06 00:45:12;;;;;;;1.65;0.50;;;;;;;17.03;81.04;100587.66;4958643;28;20439;-65
2023/07/06 00:47:47;;;;;;;0.88;0.60;;;;;;;17.10;81.35;100587.63;4965600;28;20062;-66
2023/07/06 00:50:20;;;;;;;3.45;0.40;;;;;;;17.06;81.27;100592.31;4972647;28;20502;-66
2023/07/06 00:52:51;;;;;;;0.52;0.52;;;;;;;17.04;81.71;100593.88;4983095;28;20068;-66
2023/07/06 00:55:19;;;;;;;0.60;0.60;;;;;;;16.94;81.77;100587.34;4974813;28;20041;-66
2023/07/06 00:57:52;;;;;;;0.88;0.63;;;;;;;17.02;81.99;100597.00;4957578;28;20050;-65
2023/07/06 01:00:20;;;;;;;0.60;0.60;;;;;;;16.99;81.60;100591.59;4966613;28;20372;-65
2023/07/06 01:02:51;;;;;;;0.55;0.55;;;;;;;16.83;83.14;100599.47;4958426;28;20045;-65
2023/07/06 01:05:18;;;;;;;1.80;0.67;;;;;;;16.90;82.59;100593.97;4966639;28;20047;-67
2023/07/06 01:07:47;;;;;;;3.35;0.90;;;;;;;16.86;82.39;100599.44;4979432;28;20298;-65
2023/07/06 01:10:13;;;;;;;0.57;0.50;;;;;;;16.94;82.42;100602.88;4969609;28;20066;-66
2023/07/06 01:12:39;;;;;;;3.67;0.82;;;;;;;16.87;82.67;100594.78;4976825;28;20050;-66
2023/07/06 01:15:06;;;;;;;1.83;0.70;;;;;;;16.80;83.07;100598.28;4953718;28;20031;-66
2023/07/06 01:18:07;;;;;;;1.08;0.60;;;;;;;16.76;83.58;100608.41;4968198;28;20391;-66
2023/07/06 01:21:02;;;;;;;1.02;0.77;;;;;;;16.72;84.02;100601.47;4967748;28;20184;-67
2023/07/06 01:23:55;;;;;;;4.07;0.57;;;;;;;16.79;83.82;100604.13;4946541;28;20685;-65
2023/07/06 01:26:48;;;;;;;1.15;0.68;;;;;;;16.76;83.37;100618.53;4946596;29;20047;-65
2023/07/06 01:29:52;;;;;;;0.77;0.45;;;;;;;16.77;83.76;100614.66;4956208;28;20039;-66
2023/07/06 01:32:32;;;;;;;0.70;0.70;;;;;;;16.66;84.24;100612.00;4954797;28;20027;-66
2023/07/06 01:35:10;;;;;;;0.80;0.63;;;;;;;16.60;84.65;100624.44;4974653;28;20069;-66
2023/07/06 01:37:41;;;;;;;1.00;0.70;;;;;;;16.59;84.23;100624.84;4964528;28;20023;-66
2023/07/06 01:40:09;;;;;;;1.75;1.02;;;;;;;16.65;84.26;100625.97;4964508;28;20039;-65
2023/07/06 01:42:36;;;;;;;0.57;0.50;;;;;;;16.51;85.08;100631.50;4959001;28;20035;-65
2023/07/06 01:45:10;;;;;;;0.85;0.52;;;;;;;16.60;85.02;100631.84;4979941;28;20510;-67
2023/07/06 01:47:42;;;;;;;2.22;0.65;;;;;;;16.47;85.27;100633.41;4956551;28;20035;-66
2023/07/06 01:50:11;;;;;;;4.57;1.00;;;;;;;16.48;85.11;100643.09;4974007;28;20038;-66
2023/07/06 01:52:59;;;;;;;0.75;0.45;;;;;;;16.32;85.91;100637.38;4971818;28;20034;-66
2023/07/06 01:55:47;;;;;;;0.95;0.77;;;;;;;16.41;85.97;100646.66;4973093;28;20045;-66
2023/07/06 01:58:32;;;;;;;0.65;0.40;;;;;;;16.39;86.32;100645.47;4972855;28;20530;-65
2023/07/06 02:01:10;;;;;;;1.10;1.00;;;;;;;16.39;86.48;100650.91;4939889;28;20086;-64
2023/07/06 02:03:41;;;;;;;1.50;0.88;;;;;;;16.41;86.11;100648.59;4969705;28;20035;-65
2023/07/06 02:06:10;;;;;;;0.80;0.80;;;;;;;16.31;86.33;100646.66;4968052;28;20074;-65
2023/07/06 02:08:41;;;;;;;0.82;0.65;;;;;;;16.24;86.76;100645.53;4968835;28;20110;-64
2023/07/06 02:11:19;;;;;;;5.63;0.75;;;;;;;16.28;86.64;100649.00;4950740;28;20066;-66
2023/07/06 02:13:44;;;;;;;0.63;0.60;;;;;;;16.18;86.57;100651.78;4967370;28;20435;-64
2023/07/06 02:16:10;;;;;;;0.88;0.70;;;;;;;16.18;87.65;100651.78;4973379;28;20101;-65
2023/07/06 02:18:39;;;;;;;1.25;0.90;;;;;;;16.24;87.26;100650.19;4955419;28;20079;-65
2023/07/06 02:21:05;;;;;;;1.70;1.10;;;;;;;16.27;87.41;100649.41;4971849;28;21471;-65
2023/07/06 02:23:30;;;;;;;0.82;0.70;;;;;;;16.18;87.44;100647.09;4955009;28;20041;-66
2023/07/06 02:25:56;;;;;;;0.82;0.80;;;;;;;16.25;87.07;100647.09;4950189;28;20034;-66
2023/07/06 02:28:23;;;;;;;0.73;0.63;;;;;;;16.19;87.04;100654.09;4973314;28;20038;-66
2023/07/06 02:30:49;;;;;;;2.25;1.23;;;;;;;16.15;87.52;100653.31;4952947;28;20038;-65
2023/07/06 02:33:18;;;;;;;1.33;0.88;;;;;;;16.12;87.87;100648.66;4971665;28;20377;-66
2023/07/06 02:35:46;;;;;;;1.33;0.98;;;;;;;16.14;87.81;100651.00;4955208;28;20034;-66
2023/07/06 02:38:17;;;;;;;1.50;1.00;;;;;;;16.14;87.49;100643.59;4984579;28;20109;-66
2023/07/06 02:40:43;;;;;;;1.77;0.80;;;;;;;16.12;87.84;100656.06;4944317;28;20038;-67
2023/07/06 02:43:08;;;;;;;0.88;0.75;;;;;;;15.93;88.87;100651.81;4977117;28;20041;-66
2023/07/06 02:45:35;;;;;;;0.95;0.68;;;;;;;16.06;88.61;100657.63;4993230;23;20042;-62
2023/07/06 02:48:00;;;;;;;1.75;1.08;;;;;;;16.11;88.32;100657.97;5012538;28;20618;-62
2023/07/06 02:50:27;;;;;;;1.02;0.93;;;;;;;16.13;88.01;100646.72;5015742;28;20037;-62
2023/07/06 02:52:52;;;;;;;1.13;0.80;;;;;;;16.13;88.07;100658.38;5000021;28;20052;-62
2023/07/06 02:55:18;;;;;;;2.35;0.88;;;;;;;16.05;88.45;100659.53;5006442;28;20033;-61
2023/07/06 02:57:43;;;;;;;0.93;0.70;;;;;;;16.16;87.89;100665.72;4988587;28;20037;-64
2023/07/06 03:00:13;;;;;;;1.02;0.80;;;;;;;16.05;88.25;100664.97;4980173;28;20034;-65
2023/07/06 03:02:39;;;;;;;1.02;0.70;;;;;;;16.05;88.43;100662.25;4988607;28;20479;-62
2023/07/06 03:05:05;;;;;;;2.15;1.65;;;;;;;16.03;88.64;100672.75;4989925;28;20038;-62
2023/07/06 03:07:34;;;;;;;2.55;1.77;;;;;;;16.09;88.16;100673.13;4989434;28;20040;-64
2023/07/06 03:10:08;;;;;;;1.38;1.17;;;;;;;16.08;88.15;100674.31;4990739;28;20057;-60
2023/07/06 03:12:36;;;;;;;2.53;1.33;;;;;;;15.94;88.67;100669.66;4983663;28;20090;-63
2023/07/06 03:15:07;;;;;;;1.98;0.90;;;;;;;15.94;89.11;100672.38;5001470;28;20184;-62
2023/07/06 03:17:33;;;;;;;1.42;1.15;;;;;;;15.93;89.03;100675.50;4995260;28;20022;-65
2023/07/06 03:19:58;;;;;;;2.58;1.23;;;;;;;15.95;89.07;100684.78;5001180;28;20368;-63
2023/07/06 03:22:24;;;;;;;1.92;1.60;;;;;;;15.99;89.19;100682.06;5004135;28;20130;-64
2023/07/06 03:24:49;;;;;;;2.50;1.52;;;;;;;16.04;88.50;100679.75;5010046;28;20405;-62
2023/07/06 03:27:15;;;;;;;1.38;0.90;;;;;;;16.04;88.61;100689.81;4980029;28;20109;-62
2023/07/06 03:29:41;;;;;;;3.05;1.50;;;;;;;15.95;88.71;100686.75;4996539;28;20121;-65
2023/07/06 03:32:07;;;;;;;2.38;1.60;;;;;;;15.90;89.15;100698.78;4981494;28;20418;-64
2023/07/06 03:34:33;;;;;;;1.55;0.93;;;;;;;15.93;89.05;100692.53;4991608;28;20038;-64
2023/07/06 03:36:59;;;;;;;2.25;1.38;;;;;;;15.99;88.95;100692.94;4988799;28;20044;-64
2023/07/06 03:39:25;;;;;;;1.40;1.10;;;;;;;16.02;89.27;100700.31;4992152;28;20034;-60
2023/07/06 03:41:51;;;;;;;1.25;1.15;;;;;;;16.03;88.79;100702.63;4970350;28;20042;-63
2023/07/06 03:44:21;;;;;;;1.35;0.88;;;;;;;15.98;89.10;100694.09;5001679;28;20052;-64
2023/07/06 03:46:47;;;;;;;1.42;1.05;;;;;;;15.94;88.88;100707.69;5002766;28;20057;-63
2023/07/06 03:49:13;;;;;;;1.75;1.23;;;;;;;15.90;89.49;100706.91;4995812;28;20081;-62
2023/07/06 03:51:38;;;;;;;1.45;1.00;;;;;;;15.86;90.07;100708.84;4989299;28;20058;-64
2023/07/06 03:54:06;;;;;;;2.03;1.25;;;;;;;15.92;89.47;100718.16;5002432;28;20076;-62
2023/07/06 03:56:32;;;;;;;1.63;1.38;;;;;;;15.96;89.41;100716.22;4993734;28;20147;-63
2023/07/06 03:58:58;;;;;;;1.50;0.88;;;;;;;15.94;89.54;100715.06;4990793;28;20034;-63
2023/07/06 04:01:28;;;;;;;1.85;1.00;;;;;;;15.93;89.76;100722.44;4987668;28;20038;-64
2023/07/06 04:03:55;;;;;;;2.13;1.20;;;;;;;16.07;89.33;100722.41;4977213;28;20038;-62
2023/07/06 04:06:26;;;;;;;1.67;1.55;;;;;;;16.09;88.70;100711.94;4964062;28;20358;-62
2023/07/06 04:08:53;;;;;;;2.28;0.95;;;;;;;16.08;88.71;100725.91;4997978;28;20030;-61
2023/07/06 04:11:18;;;;;;;2.03;1.05;;;;;;;16.09;89.29;100722.03;4972769;28;20097;-63
2023/07/06 04:13:44;;;;;;;3.20;1.58;;;;;;;16.12;88.70;100737.56;5002921;28;20034;-65
2023/07/06 04:16:16;;;;;;;2.33;1.45;;;;;;;16.07;88.91;100727.84;4989190;28;20410;-62
2023/07/06 04:18:45;;;;;;;2.88;1.30;;;;;;;15.99;89.29;100723.59;5003336;28;20041;-61
2023/07/06 04:21:22;;;;;;;1.92;1.38;;;;;;;16.08;89.34;100729.44;4973798;28;20076;-64
2023/07/06 04:23:48;;;;;;;1.73;1.17;;;;;;;16.15;88.60;100723.19;5002689;28;20045;-61
2023/07/06 04:26:15;;;;;;;1.65;1.20;;;;;;;16.12;89.13;100727.44;5001950;28;20073;-62
2023/07/06 04:28:42;;;;;;;1.40;0.80;;;;;;;16.25;88.50;100723.19;4988253;28;20038;-63
2023/07/06 04:31:28;;;;;;;3.17;1.25;;;;;;;16.21;88.67;100729.78;5006398;28;20042;-62
2023/07/06 04:33:54;;;;;;;2.63;1.05;;;;;;;16.22;88.83;100728.59;4898652;29;20053;-61
2023/07/06 04:36:19;;;;;;;1.65;0.95;;;;;;;16.24;88.87;100732.50;4883781;29;20096;-61
2023/07/06 04:38:45;;;;;;;2.03;1.30;;;;;;;16.32;88.65;100727.81;4906992;29;20040;-63
2023/07/06 04:41:12;;;;;;;1.55;1.00;;;;;;;16.44;88.49;100732.06;4893516;29;20040;-64
2023/07/06 04:43:38;;;;;;;2.22;1.00;;;;;;;16.25;88.41;100734.06;4891604;29;20065;-62
2023/07/06 04:46:03;;;;;;;0.88;0.73;;;;;;;16.22;89.37;100723.94;4896773;29;20493;-62
2023/07/06 04:48:30;;;;;;;3.80;1.10;;;;;;;16.35;88.78;100735.19;4903381;29;20051;-63
2023/07/06 04:50:55;;;;;;;0.95;0.85;;;;;;;16.44;89.01;100735.56;4903696;29;20868;-62
2023/07/06 04:53:21;;;;;;;1.10;0.82;;;;;;;16.47;89.00;100739.44;4903117;29;20040;-64
2023/07/06 04:55:48;;;;;;;2.28;1.10;;;;;;;16.57;88.35;100730.53;4894813;29;20033;-63
2023/07/06 04:58:14;;;;;;;1.60;1.02;;;;;;;16.59;88.65;100730.91;4898187;29;20088;-63
2023/07/06 05:00:40;;;;;;;2.63;1.00;;;;;;;16.62;88.61;100743.72;4885992;29;20048;-68
2023/07/06 05:03:08;;;;;;;3.17;1.15;;;;;;;16.56;88.81;100737.91;4876965;29;20112;-63
2023/07/06 05:05:45;;;;;;;1.00;0.90;;;;;;;16.71;88.02;100749.50;4873433;29;20051;-64
2023/07/06 05:08:15;;;;;;;1.55;1.10;;;;;;;16.65;88.42;100740.97;4893171;29;20397;-62
2023/07/06 05:10:43;;;;;;;1.60;1.20;;;;;;;16.81;88.59;100743.25;4936411;28;20121;-63
2023/07/06 05:13:09;;;;;;;1.38;0.82;;;;;;;16.90;87.88;100736.22;4990757;28;20045;-63
2023/07/06 05:15:36;;;;;;;2.47;1.33;;;;;;;16.98;88.23;100736.97;5000701;28;20068;-62
2023/07/06 05:18:02;;;;;;;2.38;1.23;;;;;;;17.39;87.39;100740.63;5003930;28;20030;-63
2023/07/06 05:20:30;;;;;;;2.20;1.25;;;;;;;18.00;85.80;100748.00;5000992;28;20113;-64
2023/07/06 05:22:57;;;;;;;2.45;1.02;;;;;;;18.56;84.04;100748.69;4998313;28;20065;-64
2023/07/06 05:25:23;;;;;;;3.58;1.20;;;;;;;19.01;80.58;100761.00;5004208;28;20486;-67
2023/07/06 05:27:49;;;;;;;2.65;1.20;;;;;;;19.21;78.11;100756.44;5000363;28;20026;-63
2023/07/06 05:30:15;;;;;;;1.52;1.05;;;;;;;19.73;78.03;100763.16;5007105;28;20034;-65
2023/07/06 05:32:41;;;;;;;2.17;0.95;;;;;;;20.00;75.66;100757.63;4999960;28;20030;-65
2023/07/06 05:35:07;;;;;;;1.25;0.90;;;;;;;20.25;74.34;100765.44;4998165;28;20049;-63
2023/07/06 05:37:33;;;;;;;1.08;0.77;;;;;;;20.40;74.00;100764.03;4995494;28;20437;-63
2023/07/06 05:40:01;;;;;;;1.30;0.73;;;;;;;20.59;72.49;100763.28;5011151;28;20083;-64
2023/07/06 05:42:26;;;;;;;2.15;0.82;;;;;;;20.65;72.15;100776.03;5006456;28;20121;-65
2023/07/06 05:44:52;;;;;;;1.88;0.85;;;;;;;20.93;70.60;100769.25;5002210;28;20117;-64
2023/07/06 05:47:18;;;;;;;1.60;0.68;;;;;;;21.04;70.94;100778.03;4989448;28;20050;-63
2023/07/06 05:49:43;;;;;;;0.82;0.55;;;;;;;21.10;70.22;100773.59;4987885;28;20042;-63
2023/07/06 05:52:09;;;;;;;1.08;0.60;;;;;;;21.27;69.89;100769.72;4989088;28;20033;-68
2023/07/06 05:54:34;;;;;;;0.90;0.82;;;;;;;21.34;69.60;100780.53;4985195;28;20073;-62
2023/07/06 05:57:02;;;;;;;0.77;0.65;;;;;;;21.43;68.68;100777.19;4989994;28;20057;-63
2023/07/06 05:59:29;;;;;;;1.13;0.60;;;;;;;21.65;67.62;100778.28;4987694;28;20034;-63
2023/07/06 06:01:58;;;;;;;1.15;0.93;;;;;;;21.58;67.41;100784.69;5003862;28;20104;-63
2023/07/06 06:04:25;;;;;;;1.15;0.80;;;;;;;21.57;67.52;100787.84;5003983;28;20049;-67
2023/07/06 06:06:54;;;;;;;1.50;0.77;;;;;;;21.58;67.95;100787.44;4999034;28;20041;-62
2023/07/06 06:09:21;;;;;;;2.60;0.90;;;;;;;21.64;68.55;100786.94;4997458;28;20394;-65
2023/07/06 06:11:48;;;;;;;2.20;0.82;;;;;;;21.77;67.84;100783.09;4991096;28;20057;-64
2023/07/06 06:14:16;;;;;;;1.17;0.70;;;;;;;21.83;66.42;100791.59;4987134;28;20499;-62
2023/07/06 06:16:42;;;;;;;0.70;0.60;;;;;;;21.48;66.71;100796.69;5000457;28;20372;-62
2023/07/06 06:19:08;;;;;;;0.98;0.60;;;;;;;21.65;67.14;100793.94;4991827;28;20045;-63
2023/07/06 06:21:33;;;;;;;1.00;0.57;;;;;;;21.72;66.88;100805.53;5000600;28;20038;-62
2023/07/06 06:24:01;;;;;;;2.70;0.88;;;;;;;21.70;66.94;100807.91;4995242;28;20497;-65
2023/07/06 06:26:29;;;;;;;1.70;0.70;;;;;;;21.56;67.39;100806.25;4993319;28;20121;-63
2023/07/06 06:28:57;;;;;;;0.32;0.32;;;;;;;21.81;66.94;100807.72;5005156;28;20038;-62
2023/07/06 06:31:24;;;;;;;0.65;0.47;;;;;;;21.84;67.05;100812.34;5001250;28;20041;-63
2023/07/06 06:34:10;;;;;;;1.10;0.50;;;;;;;21.98;66.26;100815.53;4973179;28;20069;-63
2023/07/06 06:36:36;;;;;;;0.88;0.70;;;;;;;22.09;64.68;100815.25;4912808;29;20428;-62
2023/07/06 06:39:02;;;;;;;0.90;0.80;;;;;;;21.98;64.94;100826.50;4899086;29;20056;-63
2023/07/06 06:41:28;;;;;;;1.38;0.50;;;;;;;21.87;66.18;100826.00;4912128;29;20424;-62
2023/07/06 06:43:56;;;;;;;1.00;0.40;;;;;;;22.07;64.87;100831.38;4917714;29;20036;-62
2023/07/06 06:46:23;;;;;;;1.30;0.68;;;;;;;21.92;65.48;100830.19;4919316;29;20067;-65
2023/07/06 06:48:49;;;;;;;1.35;0.50;;;;;;;21.93;65.15;100826.25;4922091;29;20119;-64
2023/07/06 06:51:14;;;;;;;1.23;0.60;;;;;;;21.92;65.31;100827.44;4902384;29;20536;-63
2023/07/06 06:53:40;;;;;;;1.15;0.47;;;;;;;22.01;65.64;100828.38;4920042;29;20055;-62
2023/07/06 06:56:09;;;;;;;1.73;0.47;;;;;;;22.14;64.62;100833.97;4915283;29;20036;-63
2023/07/06 06:58:36;;;;;;;0.70;0.40;;;;;;;22.15;64.76;100841.78;4910816;29;20039;-63
2023/07/06 07:01:03;;;;;;;1.20;0.73;;;;;;;22.22;63.86;100849.06;4913277;29;20078;-62
2023/07/06 07:03:29;;;;;;;0.77;0.50;;;;;;;22.35;64.22;100841.69;4923250;29;20058;-63
2023/07/06 07:06:11;;;;;;;0.60;0.40;;;;;;;22.53;63.70;100843.97;4897908;29;20028;-62
2023/07/06 07:08:36;;;;;;;;;;;;;;;22.84;62.21;100840.41;4915204;29;20071;-62
2023/07/06 07:11:02;;;;;;;0.70;0.43;;;;;;;22.86;61.45;100848.25;4915427;29;19954;-65
2023/07/06 07:13:28;;;;;;;0.60;0.50;;;;;;;22.92;59.91;100855.50;4953574;28;20050;-63
2023/07/06 07:15:54;;;;;;;8.77;0.73;;;;;;;22.90;60.30;100851.66;4996592;28;20030;-63
2023/07/06 07:18:40;;;;;;;0.50;0.50;;;;;;;23.12;59.77;100855.34;4989828;28;20167;-65
2023/07/06 07:21:26;;;;;;;1.58;0.57;;;;;;;22.73;59.76;100861.91;4929109;29;20063;-62
2023/07/06 07:23:51;;;;;;;0.50;0.40;;;;;;;22.80;60.30;100864.44;4861738;29;20532;-63
2023/07/06 07:26:22;;;;;;;0.38;0.28;;;;;;;22.96;58.06;100856.19;4860098;29;20562;-62
2023/07/06 07:28:48;;;;;;;0.60;0.40;;;;;;;23.11;57.28;100854.56;4854528;29;20558;-63
2023/07/06 07:31:15;;;;;;;0.35;0.35;;;;;;;23.33;56.50;100849.28;4865187;29;20096;-62
2023/07/06 07:33:44;;;;;;;1.77;0.68;;;;;;;23.56;55.75;100859.22;4866913;29;20044;-62
2023/07/06 07:36:11;;;;;;;0.73;0.50;;;;;;;23.68;55.45;100861.22;4861081;29;20093;-64
2023/07/06 07:38:37;;;;;;;0.30;0.30;;;;;;;23.74;55.29;100873.22;4858171;29;20046;-62
2023/07/06 07:41:06;;;;;;;0.93;0.30;;;;;;;24.01;53.96;100859.78;4853828;29;20595;-63
2023/07/06 07:43:34;;;;;;;0.60;0.43;;;;;;;24.02;52.35;100877.88;4855596;29;20558;-67
2023/07/06 07:46:05;;;;;;;0.32;0.32;;;;;;;24.02;50.61;100878.63;4865876;29;20057;-62
2023/07/06 07:48:33;;;;;;;0.38;0.20;;;;;;;24.11;51.37;100872.47;4863061;29;20060;-64
2023/07/06 07:51:03;;;;;;;0.98;0.35;;;;;;;24.07;51.38;100886.38;4854382;29;20478;-63
2023/07/06 07:53:35;;;;;;;0.47;0.30;;;;;;;24.09;51.89;100877.66;4861332;29;20515;-64
2023/07/06 07:56:01;;;;;;;0.47;0.38;;;;;;;23.93;51.37;100886.00;4859826;29;20049;-63
2023/07/06 07:58:27;;;;;;;1.45;0.47;;;;;;;24.23;51.25;100884.69;4887669;29;20111;-63
2023/07/06 08:00:56;;;;;;;0.40;0.38;;;;;;;24.43;50.18;100885.97;4958915;28;20046;-64
2023/07/06 08:03:25;;;;;;;0.15;0.15;;;;;;;24.47;50.32;100889.38;4994831;28;20039;-66
2023/07/06 08:05:52;;;;;;;0.22;0.20;;;;;;;24.74;50.14;100895.19;4996573;28;20042;-62
2023/07/06 08:08:18;;;;;;;0.40;0.30;;;;;;;24.92;49.43;100898.13;4999008;28;20053;-62
2023/07/06 08:10:45;;;;;;;0.47;0.30;;;;;;;24.97;49.51;100902.28;4988177;28;20384;-64
2023/07/06 08:13:11;;;;;;;0.40;0.40;;;;;;;25.03;48.45;100894.97;4988635;28;20049;-64
2023/07/06 08:15:37;;;;;;;0.30;0.30;;;;;;;24.98;48.72;100896.34;5004025;28;20390;-63
2023/07/06 08:18:03;;;;;;;0.75;0.20;;;;;;;25.03;48.22;100900.47;4999750;28;20030;-63
2023/07/06 08:20:35;;;;;;;0.28;0.28;;;;;;;25.18;49.42;100896.03;4998115;28;20145;-64
2023/07/06 08:23:06;;;;;;;2.20;0.40;;;;;;;25.28;47.71;100894.09;4997672;28;20029;-64
2023/07/06 08:25:38;;;;;;;0.20;0.20;;;;;;;24.84;47.89;100905.09;4989640;28;20045;-63
2023/07/06 08:28:05;;;;;;;0.43;0.28;;;;;;;25.00;48.50;100909.66;5001382;28;20307;-63
2023/07/06 08:30:52;;;;;;;0.65;0.32;;;;;;;25.16;46.83;100903.97;4992852;28;20490;-63
2023/07/06 08:33:20;;;;;;;0.80;0.32;;;;;;;25.39;47.49;100906.31;4906900;29;20044;-64
2023/07/06 08:35:47;;;;;;;1.58;0.50;;;;;;;25.59;45.95;100919.78;4922268;29;20718;-63
2023/07/06 08:38:13;;;;;;;0.20;0.17;;;;;;;25.82;44.95;100911.00;4924489;29;20144;-63
2023/07/06 08:40:41;;;;;;;0.47;0.20;;;;;;;25.85;46.10;100921.13;4920160;29;20032;-66
2023/07/06 08:43:18;;;;;;;0.40;0.38;;;;;;;25.93;46.63;100931.47;4913142;29;20036;-62
2023/07/06 08:45:47;;;;;;;1.08;0.47;;;;;;;25.94;45.60;100926.69;4989980;23;20049;-65
2023/07/06 08:48:15;;;;;;;0.68;0.47;;;;;;;25.80;46.75;100930.03;5007894;28;20022;-67
2023/07/06 08:50:48;;;;;;;0.50;0.40;;;;;;;26.06;47.46;100925.09;5016500;28;20072;-65
2023/07/06 08:53:14;;;;;;;0.55;0.30;;;;;;;26.19;46.99;100925.78;5010534;28;20048;-67
2023/07/06 08:55:43;;;;;;;0.25;0.25;;;;;;;26.21;45.84;100921.31;5017985;28;20042;-66
2023/07/06 08:58:14;;;;;;;0.40;0.40;;;;;;;26.24;46.35;100931.47;5002027;28;20056;-65
2023/07/06 09:01:00;;;;;;;0.60;0.38;;;;;;;26.28;46.83;100932.09;5018073;28;20149;-66
2023/07/06 09:03:26;;;;;;;0.30;0.30;;;;;;;26.43;44.93;100927.53;4935664;29;20047;-66
2023/07/06 09:05:52;;;;;;;0.45;0.35;;;;;;;25.85;46.04;100937.69;4925392;29;20044;-67
2023/07/06 09:08:19;;;;;;;0.22;0.22;;;;;;;25.77;46.35;100931.69;4924733;29;20536;-67
2023/07/06 09:10:44;;;;;;;0.45;0.28;;;;;;;25.97;46.43;100927.78;4929561;29;20175;-66
2023/07/06 09:13:22;;;;;;;0.38;0.30;;;;;;;26.23;45.26;100934.69;4926015;29;20586;-65
2023/07/06 09:15:54;;;;;;;0.43;0.30;;;;;;;26.60;43.73;100928.78;4908242;29;20047;-66
2023/07/06 09:18:23;;;;;;;0.10;0.10;;;;;;;26.49;45.01;100931.25;4918809;29;20091;-66
2023/07/06 09:20:49;;;;;;;0.40;0.30;;;;;;;26.69;44.62;100937.09;4927359;29;20055;-68
2023/07/06 09:23:15;;;;;;;0.80;0.30;;;;;;;26.88;43.32;100934.41;4932941;29;20044;-66
2023/07/06 09:25:43;;;;;;;0.77;0.40;;;;;;;26.81;43.28;100940.22;4933516;29;20039;-67
2023/07/06 09:28:29;;;;;;;1.75;0.50;;;;;;;26.46;43.90;100939.69;4923726;29;20070;-66
2023/07/06 09:31:14;;;;;;;0.30;0.20;;;;;;;26.14;45.31;100946.47;4931890;29;20056;-65
2023/07/06 09:33:48;;;;;;;0.13;0.08;;;;;;;25.86;45.17;100944.78;4934011;29;20048;-66
2023/07/06 09:36:23;;;;;;;0.73;0.32;;;;;;;25.52;45.83;100955.91;4930901;29;20040;-67
2023/07/06 09:38:52;;;;;;;0.63;0.45;;;;;;;25.59;45.14;100947.38;4930484;29;20311;-67
2023/07/06 09:41:21;;;;;;;0.32;0.30;;;;;;;25.49;45.00;100957.56;4973578;28;20049;-68
2023/07/06 09:43:52;;;;;;;2.75;0.32;;;;;;;25.58;44.96;100956.84;5012778;28;20033;-66
2023/07/06 09:46:18;;;;;;;0.30;0.30;;;;;;;25.74;44.96;100954.69;5019126;28;20402;-66
2023/07/06 09:48:44;;;;;;;0.73;0.30;;;;;;;25.62;45.41;100950.00;5004165;28;20046;-67
2023/07/06 09:51:17;;;;;;;1.67;0.20;;;;;;;25.50;45.18;100956.34;5010386;28;20049;-67
2023/07/06 09:53:56;;;;;;;1.50;0.47;;;;;;;25.58;44.49;100963.16;5010652;28;20037;-65
2023/07/06 09:56:43;;;;;;;0.93;0.47;;;;;;;25.38;45.95;100962.66;5012317;28;20041;-66
2023/07/06 09:59:09;;;;;;;0.30;0.30;;;;;;;25.23;45.47;100966.38;4939505;29;20050;-67
2023/07/06 10:01:56;;;;;;;1.27;0.50;;;;;;;25.10;45.04;100966.44;4938387;29;20047;-67
2023/07/06 10:04:48;;;;;;;1.30;0.40;;;;;;;25.09;45.39;100958.59;4937286;29;20048;-66
2023/07/06 10:07:31;;;;;;;0.30;0.28;;;;;;;25.19;45.76;100968.47;4925154;29;20044;-65
2023/07/06 10:10:13;;;;;;;0.22;0.22;;;;;;;25.50;45.55;100961.88;4934085;29;20659;-66
2023/07/06 10:12:38;;;;;;;;;;;;;;;25.55;44.83;100963.28;4929865;29;20039;-66
2023/07/06 10:15:25;;;;;;;0.85;0.38;;;;;;;25.69;44.50;100971.81;4931000;29;19924;-65
2023/07/06 10:18:05;;;;;;;1.10;0.40;;;;;;;26.09;44.87;100969.16;4942000;29;20512;-67
2023/07/06 10:20:41;;;;;;;0.38;0.30;;;;;;;26.00;44.89;100976.59;4921251;29;20035;-67
2023/07/06 10:23:12;;;;;;;0.77;0.57;;;;;;;25.79;43.67;100964.34;4933425;29;20424;-67
2023/07/06 10:25:50;;;;;;;0.40;0.30;;;;;;;25.63;45.16;100972.81;4931347;29;20122;-67
2023/07/06 10:28:38;;;;;;;0.60;0.40;;;;;;;25.90;45.41;100978.50;4935281;29;20044;-66
2023/07/06 10:31:07;;;;;;;0.65;0.30;;;;;;;26.33;44.85;100964.63;4938738;29;20450;-67
2023/07/06 10:33:52;;;;;;;0.30;0.30;;;;;;;26.77;44.06;100973.56;4945286;29;20051;-64
2023/07/06 10:36:19;;;;;;;0.50;0.40;;;;;;;27.19;44.00;100982.84;4964024;28;20046;-64
2023/07/06 10:38:48;;;;;;;0.75;0.30;;;;;;;27.49;43.13;100975.59;5005666;28;20014;-65
2023/07/06 10:41:14;;;;;;;0.50;0.32;;;;;;;27.15;44.53;100975.91;5010793;28;20087;-65
2023/07/06 10:43:42;;;;;;;0.32;0.28;;;;;;;27.25;42.22;100980.22;5010117;28;20045;-64
2023/07/06 10:46:33;;;;;;;0.30;0.30;;;;;;;27.11;42.34;100970.53;5012282;28;20103;-64
2023/07/06 10:49:20;;;;;;;0.65;0.30;;;;;;;27.18;41.16;100961.13;4992279;28;20060;-64
2023/07/06 10:51:50;;;;;;;0.50;0.35;;;;;;;27.00;41.94;100972.22;4997792;28;20037;-65
2023/07/06 10:54:23;;;;;;;1.05;0.60;;;;;;;26.82;41.86;100969.41;4994418;28;20044;-65
2023/07/06 10:57:02;;;;;;;0.82;0.68;;;;;;;26.71;42.56;100981.66;5005038;28;20502;-66
2023/07/06 10:59:51;;;;;;;0.95;0.20;;;;;;;26.81;43.14;100974.16;5005431;28;20058;-64
2023/07/06 11:02:25;;;;;;;0.47;0.35;;;;;;;27.23;44.10;100975.16;5009785;28;20037;-66
2023/07/06 11:05:13;;;;;;;0.52;0.50;;;;;;;27.42;42.51;100973.94;5005020;28;20490;-67
2023/07/06 11:07:53;;;;;;;0.60;0.30;;;;;;;27.55;43.34;100971.75;5010244;28;20042;-65
2023/07/06 11:10:21;;;;;;;0.77;0.30;;;;;;;27.92;43.63;100972.44;5002995;28;20057;-64
2023/07/06 11:12:50;;;;;;;0.57;0.30;;;;;;;28.24;42.47;100982.09;5017264;28;20048;-64
2023/07/06 11:15:16;;;;;;;0.20;0.20;;;;;;;28.38;41.20;100976.63;5006969;28;20081;-64
2023/07/06 11:17:48;;;;;;;0.30;0.30;;;;;;;28.26;40.62;100980.34;5001372;28;20071;-65
2023/07/06 11:20:27;;;;;;;0.40;0.30;;;;;;;28.05;41.23;100986.16;4995057;28;20037;-65
2023/07/06 11:23:00;;;;;;;0.50;0.38;;;;;;;27.63;42.64;100983.28;5005446;28;20049;-66
2023/07/06 11:25:28;;;;;;;0.57;0.30;;;;;;;27.42;42.03;100981.47;5010071;28;20041;-67
2023/07/06 11:28:00;;;;;;;2.25;0.77;;;;;;;27.34;42.76;100977.47;5011355;28;20061;-64
2023/07/06 11:30:39;;;;;;;2.55;0.20;;;;;;;27.65;43.06;100976.06;5005699;28;20034;-68
2023/07/06 11:33:06;;;;;;;1.63;0.43;;;;;;;27.88;40.70;100969.09;5002136;28;20120;-65
2023/07/06 11:36:06;;;;;;;0.50;0.40;;;;;;;28.28;40.63;100977.16;4996981;28;20490;-66
2023/07/06 11:39:10;;;;;;;1.05;0.35;;;;;;;28.40;40.55;100985.22;5006657;28;20675;-63
2023/07/06 11:41:44;;;;;;;0.43;0.30;;;;;;;28.14;40.93;100992.44;5005101;28;20038;-65